sensor_id;sensor_type;location;lat;lon;timestamp;P1;durP1;ratioP1;P2;durP2;ratioP2
30647;SDS011;17683;53.360;9.736;2023-01-29T00:01:15;32.53;;;18.80;;
30647;SDS011;17683;53.360;9.736;2023-01-29T00:03:41;33.10;;;18.33;;
30647;SDS011;17683;53.360;9.736;2023-01-29T00:06:07;29.23;;;17.55;;
30647;SDS011;17683;53.360;9.736;2023-01-29T00:08:34;28.60;;;18.25;;
30647;SDS011;17683;53.360;9.736;2023-01-29T00:11:01;32.03;;;18.40;;
30647;SDS011;17683;53.360;9.736;2023-01-29T00:13:31;32.55;;;17.85;;
30647;SDS011;17683;53.360;9.736;2023-01-29T00:15:58;33.67;;;17.55;;
30647;SDS011;17683;53.360;9.736;2023-01-29T00:18:25;32.38;;;17.45;;
30647;SDS011;17683;53.360;9.736;2023-01-29T00:20:51;33.50;;;18.63;;
30647;SDS011;17683;53.360;9.736;2023-01-29T00:23:17;29.60;;;17.77;;
30647;SDS011;17683;53.360;9.736;2023-01-29T00:25:43;31.63;;;19.15;;
30647;SDS011;17683;53.360;9.736;2023-01-29T00:28:10;28.98;;;17.67;;
30647;SDS011;17683;53.360;9.736;2023-01-29T00:30:36;30.05;;;16.10;;
30647;SDS011;17683;53.360;9.736;2023-01-29T00:33:02;28.20;;;17.38;;
30647;SDS011;17683;53.360;9.736;2023-01-29T00:35:29;30.20;;;17.52;;
30647;SDS011;17683;53.360;9.736;2023-01-29T00:37:55;27.60;;;16.52;;
30647;SDS011;17683;53.360;9.736;2023-01-29T00:40:21;26.48;;;15.95;;
30647;SDS011;17683;53.360;9.736;2023-01-29T00:42:47;25.17;;;15.48;;
30647;SDS011;17683;53.360;9.736;2023-01-29T00:45:32;31.95;;;15.80;;
30647;SDS011;17683;53.360;9.736;2023-01-29T00:48:00;31.75;;;16.00;;
30647;SDS011;17683;53.360;9.736;2023-01-29T00:50:26;30.70;;;16.90;;
30647;SDS011;17683;53.360;9.736;2023-01-29T00:52:53;26.48;;;15.57;;
30647;SDS011;17683;53.360;9.736;2023-01-29T00:55:18;24.00;;;15.68;;
30647;SDS011;17683;53.360;9.736;2023-01-29T00:57:44;27.48;;;15.77;;
30647;SDS011;17683;53.360;9.736;2023-01-29T01:00:11;25.60;;;15.55;;
30647;SDS011;17683;53.360;9.736;2023-01-29T01:02:39;27.23;;;14.68;;
30647;SDS011;17683;53.360;9.736;2023-01-29T01:05:23;27.75;;;15.55;;
30647;SDS011;17683;53.360;9.736;2023-01-29T01:07:50;22.35;;;14.63;;
30647;SDS011;17683;53.360;9.736;2023-01-29T01:10:28;31.95;;;15.70;;
30647;SDS011;17683;53.360;9.736;2023-01-29T01:13:00;25.02;;;14.60;;
30647;SDS011;17683;53.360;9.736;2023-01-29T01:15:32;27.63;;;15.90;;
30647;SDS011;17683;53.360;9.736;2023-01-29T01:18:00;25.58;;;15.10;;
30647;SDS011;17683;53.360;9.736;2023-01-29T01:20:27;25.30;;;14.77;;
30647;SDS011;17683;53.360;9.736;2023-01-29T01:22:54;24.73;;;14.80;;
30647;SDS011;17683;53.360;9.736;2023-01-29T01:25:23;28.25;;;15.63;;
30647;SDS011;17683;53.360;9.736;2023-01-29T01:27:54;40.17;;;17.95;;
30647;SDS011;17683;53.360;9.736;2023-01-29T01:30:21;27.27;;;15.50;;
30647;SDS011;17683;53.360;9.736;2023-01-29T01:32:47;26.38;;;15.30;;
30647;SDS011;17683;53.360;9.736;2023-01-29T01:35:13;26.42;;;14.68;;
30647;SDS011;17683;53.360;9.736;2023-01-29T01:37:40;23.42;;;15.10;;
30647;SDS011;17683;53.360;9.736;2023-01-29T01:40:07;26.15;;;14.80;;
30647;SDS011;17683;53.360;9.736;2023-01-29T01:42:42;28.60;;;16.08;;
30647;SDS011;17683;53.360;9.736;2023-01-29T01:45:20;25.90;;;14.95;;
30647;SDS011;17683;53.360;9.736;2023-01-29T01:48:18;25.83;;;15.63;;
30647;SDS011;17683;53.360;9.736;2023-01-29T01:50:49;26.95;;;16.15;;
30647;SDS011;17683;53.360;9.736;2023-01-29T01:53:24;23.70;;;13.35;;
30647;SDS011;17683;53.360;9.736;2023-01-29T01:55:55;23.63;;;15.05;;
30647;SDS011;17683;53.360;9.736;2023-01-29T01:58:34;25.02;;;14.50;;
30647;SDS011;17683;53.360;9.736;2023-01-29T02:01:05;26.52;;;14.80;;
30647;SDS011;17683;53.360;9.736;2023-01-29T02:03:53;24.80;;;14.77;;
30647;SDS011;17683;53.360;9.736;2023-01-29T02:06:49;24.08;;;14.40;;
30647;SDS011;17683;53.360;9.736;2023-01-29T02:09:40;21.88;;;13.68;;
30647;SDS011;17683;53.360;9.736;2023-01-29T02:12:11;24.23;;;14.95;;
30647;SDS011;17683;53.360;9.736;2023-01-29T02:14:40;33.55;;;15.82;;
30647;SDS011;17683;53.360;9.736;2023-01-29T02:17:07;27.75;;;14.95;;
30647;SDS011;17683;53.360;9.736;2023-01-29T02:25:20;26.27;;;15.45;;
30647;SDS011;17683;53.360;9.736;2023-01-29T02:31:06;25.55;;;14.73;;
30647;SDS011;17683;53.360;9.736;2023-01-29T02:36:34;25.48;;;15.05;;
30647;SDS011;17683;53.360;9.736;2023-01-29T02:39:13;22.40;;;13.68;;
30647;SDS011;17683;53.360;9.736;2023-01-29T02:44:23;23.45;;;14.38;;
30647;SDS011;17683;53.360;9.736;2023-01-29T02:52:18;23.98;;;13.70;;
30647;SDS011;17683;53.360;9.736;2023-01-29T02:55:04;23.65;;;13.63;;
30647;SDS011;17683;53.360;9.736;2023-01-29T02:57:41;28.05;;;15.00;;
30647;SDS011;17683;53.360;9.736;2023-01-29T03:00:20;27.20;;;15.48;;
30647;SDS011;17683;53.360;9.736;2023-01-29T03:05:47;29.70;;;15.68;;
30647;SDS011;17683;53.360;9.736;2023-01-29T03:09:12;21.98;;;14.02;;
30647;SDS011;17683;53.360;9.736;2023-01-29T03:11:27;23.63;;;13.63;;
30647;SDS011;17683;53.360;9.736;2023-01-29T03:13:59;22.30;;;13.70;;
30647;SDS011;17683;53.360;9.736;2023-01-29T03:16:49;22.42;;;13.73;;
30647;SDS011;17683;53.360;9.736;2023-01-29T03:19:37;29.85;;;14.68;;
30647;SDS011;17683;53.360;9.736;2023-01-29T03:22:05;28.27;;;16.20;;
30647;SDS011;17683;53.360;9.736;2023-01-29T03:24:43;28.27;;;14.73;;
30647;SDS011;17683;53.360;9.736;2023-01-29T03:30:44;27.75;;;14.15;;
30647;SDS011;17683;53.360;9.736;2023-01-29T03:33:34;28.75;;;15.15;;
30647;SDS011;17683;53.360;9.736;2023-01-29T03:36:17;27.38;;;15.40;;
30647;SDS011;17683;53.360;9.736;2023-01-29T03:39:01;26.23;;;15.50;;
30647;SDS011;17683;53.360;9.736;2023-01-29T03:41:32;27.02;;;14.93;;
30647;SDS011;17683;53.360;9.736;2023-01-29T03:49:23;29.15;;;16.00;;
30647;SDS011;17683;53.360;9.736;2023-01-29T03:52:14;26.40;;;15.20;;
30647;SDS011;17683;53.360;9.736;2023-01-29T03:54:52;22.80;;;13.68;;
30647;SDS011;17683;53.360;9.736;2023-01-29T03:57:24;27.63;;;15.10;;
30647;SDS011;17683;53.360;9.736;2023-01-29T04:00:05;28.65;;;16.13;;
30647;SDS011;17683;53.360;9.736;2023-01-29T04:02:42;26.85;;;15.00;;
30647;SDS011;17683;53.360;9.736;2023-01-29T04:05:17;25.60;;;15.15;;
30647;SDS011;17683;53.360;9.736;2023-01-29T04:07:47;26.58;;;13.88;;
30647;SDS011;17683;53.360;9.736;2023-01-29T04:10:20;26.27;;;15.00;;
30647;SDS011;17683;53.360;9.736;2023-01-29T04:13:00;26.15;;;15.43;;
30647;SDS011;17683;53.360;9.736;2023-01-29T04:15:29;30.25;;;15.45;;
30647;SDS011;17683;53.360;9.736;2023-01-29T04:18:00;27.83;;;14.88;;
30647;SDS011;17683;53.360;9.736;2023-01-29T04:20:28;25.85;;;15.68;;
30647;SDS011;17683;53.360;9.736;2023-01-29T04:22:54;27.20;;;14.77;;
30647;SDS011;17683;53.360;9.736;2023-01-29T04:25:24;27.00;;;14.73;;
30647;SDS011;17683;53.360;9.736;2023-01-29T04:28:05;24.02;;;14.70;;
30647;SDS011;17683;53.360;9.736;2023-01-29T04:38:46;25.42;;;15.18;;
30647;SDS011;17683;53.360;9.736;2023-01-29T04:41:23;30.15;;;15.43;;
30647;SDS011;17683;53.360;9.736;2023-01-29T04:44:14;28.23;;;16.00;;
30647;SDS011;17683;53.360;9.736;2023-01-29T05:00:43;28.13;;;16.92;;
30647;SDS011;17683;53.360;9.736;2023-01-29T05:03:13;26.48;;;15.80;;
30647;SDS011;17683;53.360;9.736;2023-01-29T05:05:40;31.17;;;18.67;;
30647;SDS011;17683;53.360;9.736;2023-01-29T05:08:09;25.80;;;15.73;;
30647;SDS011;17683;53.360;9.736;2023-01-29T05:10:37;30.63;;;16.67;;
30647;SDS011;17683;53.360;9.736;2023-01-29T05:13:04;25.70;;;16.10;;
30647;SDS011;17683;53.360;9.736;2023-01-29T05:16:07;32.45;;;17.15;;
30647;SDS011;17683;53.360;9.736;2023-01-29T05:18:28;27.98;;;16.95;;
30647;SDS011;17683;53.360;9.736;2023-01-29T05:20:55;27.75;;;16.95;;
30647;SDS011;17683;53.360;9.736;2023-01-29T05:23:23;28.92;;;16.77;;
30647;SDS011;17683;53.360;9.736;2023-01-29T05:25:49;30.88;;;16.85;;
30647;SDS011;17683;53.360;9.736;2023-01-29T05:28:16;30.15;;;17.20;;
30647;SDS011;17683;53.360;9.736;2023-01-29T05:30:48;28.52;;;16.73;;
30647;SDS011;17683;53.360;9.736;2023-01-29T05:33:17;26.92;;;16.55;;
30647;SDS011;17683;53.360;9.736;2023-01-29T05:35:43;29.05;;;17.38;;
30647;SDS011;17683;53.360;9.736;2023-01-29T05:38:09;28.95;;;17.02;;
30647;SDS011;17683;53.360;9.736;2023-01-29T05:40:35;34.42;;;18.42;;
30647;SDS011;17683;53.360;9.736;2023-01-29T05:43:01;28.75;;;16.75;;
30647;SDS011;17683;53.360;9.736;2023-01-29T05:45:26;28.80;;;16.70;;
30647;SDS011;17683;53.360;9.736;2023-01-29T05:47:56;30.10;;;17.67;;
30647;SDS011;17683;53.360;9.736;2023-01-29T05:50:22;29.90;;;17.65;;
30647;SDS011;17683;53.360;9.736;2023-01-29T05:52:49;27.77;;;16.08;;
30647;SDS011;17683;53.360;9.736;2023-01-29T05:55:19;28.88;;;17.33;;
30647;SDS011;17683;53.360;9.736;2023-01-29T05:57:45;27.77;;;17.55;;
30647;SDS011;17683;53.360;9.736;2023-01-29T06:00:11;33.00;;;17.55;;
30647;SDS011;17683;53.360;9.736;2023-01-29T06:02:37;29.20;;;17.85;;
30647;SDS011;17683;53.360;9.736;2023-01-29T06:05:03;32.63;;;18.45;;
30647;SDS011;17683;53.360;9.736;2023-01-29T06:07:29;28.05;;;16.48;;
30647;SDS011;17683;53.360;9.736;2023-01-29T06:09:55;29.90;;;17.77;;
30647;SDS011;17683;53.360;9.736;2023-01-29T06:12:20;28.40;;;16.83;;
30647;SDS011;17683;53.360;9.736;2023-01-29T06:14:46;30.60;;;18.27;;
30647;SDS011;17683;53.360;9.736;2023-01-29T06:17:12;31.98;;;19.90;;
30647;SDS011;17683;53.360;9.736;2023-01-29T06:19:37;31.38;;;18.35;;
30647;SDS011;17683;53.360;9.736;2023-01-29T06:22:03;28.75;;;16.77;;
30647;SDS011;17683;53.360;9.736;2023-01-29T06:24:29;32.88;;;18.75;;
30647;SDS011;17683;53.360;9.736;2023-01-29T06:26:56;32.78;;;18.45;;
30647;SDS011;17683;53.360;9.736;2023-01-29T06:29:22;30.30;;;18.17;;
30647;SDS011;17683;53.360;9.736;2023-01-29T06:31:48;31.23;;;18.20;;
30647;SDS011;17683;53.360;9.736;2023-01-29T06:34:13;28.65;;;18.20;;
30647;SDS011;17683;53.360;9.736;2023-01-29T06:36:39;30.85;;;18.67;;
30647;SDS011;17683;53.360;9.736;2023-01-29T06:39:05;31.60;;;18.23;;
30647;SDS011;17683;53.360;9.736;2023-01-29T06:41:31;29.75;;;17.48;;
30647;SDS011;17683;53.360;9.736;2023-01-29T06:43:57;30.10;;;19.50;;
30647;SDS011;17683;53.360;9.736;2023-01-29T06:46:23;29.83;;;17.73;;
30647;SDS011;17683;53.360;9.736;2023-01-29T06:48:49;28.92;;;18.35;;
30647;SDS011;17683;53.360;9.736;2023-01-29T06:51:14;33.45;;;19.23;;
30647;SDS011;17683;53.360;9.736;2023-01-29T06:53:40;31.85;;;19.65;;
30647;SDS011;17683;53.360;9.736;2023-01-29T06:56:06;30.17;;;17.23;;
30647;SDS011;17683;53.360;9.736;2023-01-29T06:58:32;33.13;;;18.98;;
30647;SDS011;17683;53.360;9.736;2023-01-29T07:01:04;32.35;;;18.98;;
30647;SDS011;17683;53.360;9.736;2023-01-29T07:03:31;30.83;;;17.43;;
30647;SDS011;17683;53.360;9.736;2023-01-29T07:05:57;32.03;;;18.65;;
30647;SDS011;17683;53.360;9.736;2023-01-29T07:08:22;33.47;;;21.50;;
30647;SDS011;17683;53.360;9.736;2023-01-29T07:10:48;33.72;;;19.45;;
30647;SDS011;17683;53.360;9.736;2023-01-29T07:13:14;32.63;;;18.80;;
30647;SDS011;17683;53.360;9.736;2023-01-29T07:15:40;33.05;;;20.30;;
30647;SDS011;17683;53.360;9.736;2023-01-29T07:18:06;32.20;;;19.88;;
30647;SDS011;17683;53.360;9.736;2023-01-29T07:20:37;33.22;;;19.42;;
30647;SDS011;17683;53.360;9.736;2023-01-29T07:23:04;32.47;;;18.60;;
30647;SDS011;17683;53.360;9.736;2023-01-29T07:25:30;32.75;;;19.73;;
30647;SDS011;17683;53.360;9.736;2023-01-29T07:28:00;35.10;;;20.48;;
30647;SDS011;17683;53.360;9.736;2023-01-29T07:30:26;43.75;;;20.45;;
30647;SDS011;17683;53.360;9.736;2023-01-29T07:32:52;35.55;;;19.98;;
30647;SDS011;17683;53.360;9.736;2023-01-29T07:35:18;33.53;;;20.90;;
30647;SDS011;17683;53.360;9.736;2023-01-29T07:37:43;36.13;;;20.50;;
30647;SDS011;17683;53.360;9.736;2023-01-29T07:40:12;34.05;;;20.77;;
30647;SDS011;17683;53.360;9.736;2023-01-29T07:42:38;36.55;;;22.35;;
30647;SDS011;17683;53.360;9.736;2023-01-29T07:45:06;36.80;;;22.05;;
30647;SDS011;17683;53.360;9.736;2023-01-29T07:47:32;38.20;;;21.92;;
30647;SDS011;17683;53.360;9.736;2023-01-29T07:49:58;40.03;;;22.52;;
30647;SDS011;17683;53.360;9.736;2023-01-29T07:52:24;37.28;;;22.58;;
30647;SDS011;17683;53.360;9.736;2023-01-29T07:54:50;38.22;;;22.15;;
30647;SDS011;17683;53.360;9.736;2023-01-29T07:57:15;40.38;;;23.17;;
30647;SDS011;17683;53.360;9.736;2023-01-29T07:59:41;35.03;;;21.40;;
30647;SDS011;17683;53.360;9.736;2023-01-29T08:02:08;38.28;;;23.33;;
30647;SDS011;17683;53.360;9.736;2023-01-29T08:04:33;40.10;;;23.95;;
30647;SDS011;17683;53.360;9.736;2023-01-29T08:06:59;47.55;;;26.77;;
30647;SDS011;17683;53.360;9.736;2023-01-29T08:09:25;45.10;;;24.27;;
30647;SDS011;17683;53.360;9.736;2023-01-29T08:11:51;42.78;;;26.23;;
30647;SDS011;17683;53.360;9.736;2023-01-29T08:14:17;48.95;;;26.30;;
30647;SDS011;17683;53.360;9.736;2023-01-29T08:16:43;44.95;;;26.73;;
30647;SDS011;17683;53.360;9.736;2023-01-29T08:19:09;49.70;;;28.77;;
30647;SDS011;17683;53.360;9.736;2023-01-29T08:21:34;55.08;;;27.75;;
30647;SDS011;17683;53.360;9.736;2023-01-29T08:24:00;54.88;;;29.15;;
30647;SDS011;17683;53.360;9.736;2023-01-29T08:26:26;46.90;;;27.73;;
30647;SDS011;17683;53.360;9.736;2023-01-29T08:28:51;54.88;;;29.55;;
30647;SDS011;17683;53.360;9.736;2023-01-29T08:31:17;53.88;;;30.25;;
30647;SDS011;17683;53.360;9.736;2023-01-29T08:33:47;55.63;;;32.15;;
30647;SDS011;17683;53.360;9.736;2023-01-29T08:36:13;53.03;;;30.63;;
30647;SDS011;17683;53.360;9.736;2023-01-29T08:38:39;56.03;;;32.33;;
30647;SDS011;17683;53.360;9.736;2023-01-29T08:41:05;57.13;;;32.53;;
30647;SDS011;17683;53.360;9.736;2023-01-29T08:43:31;59.17;;;32.90;;
30647;SDS011;17683;53.360;9.736;2023-01-29T08:45:57;64.60;;;34.80;;
30647;SDS011;17683;53.360;9.736;2023-01-29T08:48:22;60.90;;;35.45;;
30647;SDS011;17683;53.360;9.736;2023-01-29T08:50:49;67.55;;;34.22;;
30647;SDS011;17683;53.360;9.736;2023-01-29T08:53:15;61.42;;;33.33;;
30647;SDS011;17683;53.360;9.736;2023-01-29T08:55:41;71.75;;;37.22;;
30647;SDS011;17683;53.360;9.736;2023-01-29T08:58:10;62.10;;;34.28;;
30647;SDS011;17683;53.360;9.736;2023-01-29T09:00:36;65.72;;;36.38;;
30647;SDS011;17683;53.360;9.736;2023-01-29T09:03:02;65.55;;;37.00;;
30647;SDS011;17683;53.360;9.736;2023-01-29T09:05:28;69.10;;;37.22;;
30647;SDS011;17683;53.360;9.736;2023-01-29T09:07:56;72.05;;;36.63;;
30647;SDS011;17683;53.360;9.736;2023-01-29T09:10:23;66.53;;;37.30;;
30647;SDS011;17683;53.360;9.736;2023-01-29T09:12:49;69.05;;;36.95;;
30647;SDS011;17683;53.360;9.736;2023-01-29T09:15:14;68.13;;;38.38;;
30647;SDS011;17683;53.360;9.736;2023-01-29T09:17:40;63.83;;;37.10;;
30647;SDS011;17683;53.360;9.736;2023-01-29T09:20:07;69.18;;;39.55;;
30647;SDS011;17683;53.360;9.736;2023-01-29T09:22:33;68.00;;;38.08;;
30647;SDS011;17683;53.360;9.736;2023-01-29T09:24:59;66.50;;;37.75;;
30647;SDS011;17683;53.360;9.736;2023-01-29T09:27:25;71.35;;;37.60;;
30647;SDS011;17683;53.360;9.736;2023-01-29T09:29:51;66.00;;;37.67;;
30647;SDS011;17683;53.360;9.736;2023-01-29T09:35:41;67.95;;;36.50;;
30647;SDS011;17683;53.360;9.736;2023-01-29T09:38:08;72.70;;;39.55;;
30647;SDS011;17683;53.360;9.736;2023-01-29T09:43:41;64.20;;;34.45;;
30647;SDS011;17683;53.360;9.736;2023-01-29T09:46:14;66.35;;;35.28;;
30647;SDS011;17683;53.360;9.736;2023-01-29T09:48:46;61.38;;;35.38;;
30647;SDS011;17683;53.360;9.736;2023-01-29T09:51:28;64.35;;;37.00;;
30647;SDS011;17683;53.360;9.736;2023-01-29T09:54:15;64.10;;;35.38;;
30647;SDS011;17683;53.360;9.736;2023-01-29T09:56:49;59.80;;;35.83;;
30647;SDS011;17683;53.360;9.736;2023-01-29T09:59:19;64.50;;;36.25;;
30647;SDS011;17683;53.360;9.736;2023-01-29T10:26:09;54.83;;;32.25;;
30647;SDS011;17683;53.360;9.736;2023-01-29T10:28:43;53.58;;;31.83;;
30647;SDS011;17683;53.360;9.736;2023-01-29T10:33:49;49.40;;;29.13;;
30647;SDS011;17683;53.360;9.736;2023-01-29T10:36:35;49.05;;;27.38;;
30647;SDS011;17683;53.360;9.736;2023-01-29T10:39:11;45.00;;;28.02;;
30647;SDS011;17683;53.360;9.736;2023-01-29T10:52:32;44.83;;;27.60;;
30647;SDS011;17683;53.360;9.736;2023-01-29T10:55:13;41.58;;;26.13;;
30647;SDS011;17683;53.360;9.736;2023-01-29T10:58:06;43.40;;;27.40;;
30647;SDS011;17683;53.360;9.736;2023-01-29T11:00:52;41.60;;;25.60;;
30647;SDS011;17683;53.360;9.736;2023-01-29T11:03:21;49.70;;;26.25;;
30647;SDS011;17683;53.360;9.736;2023-01-29T11:11:38;43.55;;;26.30;;
30647;SDS011;17683;53.360;9.736;2023-01-29T11:14:13;42.63;;;24.95;;
30647;SDS011;17683;53.360;9.736;2023-01-29T11:16:46;39.03;;;23.98;;
30647;SDS011;17683;53.360;9.736;2023-01-29T11:19:13;42.13;;;24.73;;
30647;SDS011;17683;53.360;9.736;2023-01-29T11:21:55;38.78;;;24.40;;
30647;SDS011;17683;53.360;9.736;2023-01-29T11:24:21;43.42;;;24.83;;
30647;SDS011;17683;53.360;9.736;2023-01-29T11:26:47;40.22;;;25.05;;
30647;SDS011;17683;53.360;9.736;2023-01-29T11:29:36;44.17;;;25.98;;
30647;SDS011;17683;53.360;9.736;2023-01-29T11:32:11;44.50;;;25.25;;
30647;SDS011;17683;53.360;9.736;2023-01-29T11:37:38;41.58;;;24.55;;
30647;SDS011;17683;53.360;9.736;2023-01-29T11:42:46;43.25;;;25.27;;
30647;SDS011;17683;53.360;9.736;2023-01-29T11:47:48;47.80;;;25.35;;
30647;SDS011;17683;53.360;9.736;2023-01-29T11:50:26;34.03;;;21.33;;
30647;SDS011;17683;53.360;9.736;2023-01-29T11:52:55;39.53;;;24.85;;
30647;SDS011;17683;53.360;9.736;2023-01-29T11:55:24;41.67;;;24.98;;
30647;SDS011;17683;53.360;9.736;2023-01-29T12:00:27;40.65;;;23.92;;
30647;SDS011;17683;53.360;9.736;2023-01-29T12:03:02;41.25;;;25.83;;
30647;SDS011;17683;53.360;9.736;2023-01-29T12:05:55;41.65;;;26.20;;
30647;SDS011;17683;53.360;9.736;2023-01-29T12:08:32;40.55;;;23.95;;
30647;SDS011;17683;53.360;9.736;2023-01-29T12:11:08;42.65;;;26.52;;
30647;SDS011;17683;53.360;9.736;2023-01-29T12:13:40;36.13;;;23.17;;
30647;SDS011;17683;53.360;9.736;2023-01-29T12:19:12;40.22;;;22.98;;
30647;SDS011;17683;53.360;9.736;2023-01-29T12:21:58;39.47;;;25.67;;
30647;SDS011;17683;53.360;9.736;2023-01-29T12:27:21;38.78;;;24.55;;
30647;SDS011;17683;53.360;9.736;2023-01-29T12:29:54;38.60;;;24.15;;
30647;SDS011;17683;53.360;9.736;2023-01-29T12:32:30;37.10;;;23.23;;
30647;SDS011;17683;53.360;9.736;2023-01-29T12:38:18;37.00;;;23.08;;
30647;SDS011;17683;53.360;9.736;2023-01-29T12:40:53;79.30;;;43.83;;
30647;SDS011;17683;53.360;9.736;2023-01-29T12:43:40;50.22;;;29.70;;
30647;SDS011;17683;53.360;9.736;2023-01-29T12:46:12;51.42;;;28.67;;
30647;SDS011;17683;53.360;9.736;2023-01-29T12:48:56;38.63;;;23.65;;
30647;SDS011;17683;53.360;9.736;2023-01-29T12:51:28;41.67;;;25.05;;
30647;SDS011;17683;53.360;9.736;2023-01-29T12:54:04;42.93;;;27.70;;
30647;SDS011;17683;53.360;9.736;2023-01-29T12:59:41;38.90;;;24.45;;
30647;SDS011;17683;53.360;9.736;2023-01-29T13:04:45;38.72;;;25.00;;
30647;SDS011;17683;53.360;9.736;2023-01-29T13:07:21;43.65;;;27.42;;
30647;SDS011;17683;53.360;9.736;2023-01-29T13:10:00;45.78;;;27.88;;
30647;SDS011;17683;53.360;9.736;2023-01-29T13:12:32;44.42;;;28.20;;
30647;SDS011;17683;53.360;9.736;2023-01-29T13:17:37;36.25;;;24.40;;
30647;SDS011;17683;53.360;9.736;2023-01-29T13:20:16;37.50;;;25.05;;
30647;SDS011;17683;53.360;9.736;2023-01-29T13:22:42;34.58;;;22.88;;
30647;SDS011;17683;53.360;9.736;2023-01-29T13:25:13;35.15;;;22.45;;
30647;SDS011;17683;53.360;9.736;2023-01-29T13:27:41;31.40;;;22.17;;
30647;SDS011;17683;53.360;9.736;2023-01-29T13:30:21;37.35;;;24.55;;
30647;SDS011;17683;53.360;9.736;2023-01-29T13:32:49;34.58;;;23.42;;
30647;SDS011;17683;53.360;9.736;2023-01-29T13:35:18;37.42;;;23.95;;
30647;SDS011;17683;53.360;9.736;2023-01-29T13:37:47;34.45;;;21.70;;
30647;SDS011;17683;53.360;9.736;2023-01-29T13:40:18;35.55;;;21.73;;
30647;SDS011;17683;53.360;9.736;2023-01-29T13:42:53;36.22;;;23.30;;
30647;SDS011;17683;53.360;9.736;2023-01-29T13:46:04;35.83;;;23.33;;
30647;SDS011;17683;53.360;9.736;2023-01-29T13:48:24;33.20;;;21.05;;
30647;SDS011;17683;53.360;9.736;2023-01-29T13:50:52;36.63;;;22.95;;
30647;SDS011;17683;53.360;9.736;2023-01-29T13:53:28;42.40;;;24.17;;
30647;SDS011;17683;53.360;9.736;2023-01-29T13:59:08;39.28;;;23.10;;
30647;SDS011;17683;53.360;9.736;2023-01-29T14:06:55;39.70;;;22.50;;
30647;SDS011;17683;53.360;9.736;2023-01-29T14:12:06;40.47;;;24.25;;
30647;SDS011;17683;53.360;9.736;2023-01-29T14:15:35;37.35;;;23.05;;
30647;SDS011;17683;53.360;9.736;2023-01-29T14:20:22;38.40;;;24.73;;
30647;SDS011;17683;53.360;9.736;2023-01-29T14:22:57;36.58;;;23.52;;
30647;SDS011;17683;53.360;9.736;2023-01-29T14:25:29;39.20;;;25.38;;
30647;SDS011;17683;53.360;9.736;2023-01-29T14:27:58;38.80;;;24.35;;
30647;SDS011;17683;53.360;9.736;2023-01-29T14:30:26;43.33;;;25.70;;
30647;SDS011;17683;53.360;9.736;2023-01-29T14:32:56;41.72;;;26.02;;
30647;SDS011;17683;53.360;9.736;2023-01-29T14:35:23;40.80;;;26.58;;
30647;SDS011;17683;53.360;9.736;2023-01-29T14:37:52;42.95;;;26.80;;
30647;SDS011;17683;53.360;9.736;2023-01-29T14:40:22;41.65;;;25.30;;
30647;SDS011;17683;53.360;9.736;2023-01-29T14:43:06;40.22;;;26.33;;
30647;SDS011;17683;53.360;9.736;2023-01-29T14:45:43;41.35;;;25.27;;
30647;SDS011;17683;53.360;9.736;2023-01-29T14:50:38;44.90;;;26.23;;
30647;SDS011;17683;53.360;9.736;2023-01-29T14:53:14;37.45;;;25.00;;
30647;SDS011;17683;53.360;9.736;2023-01-29T14:55:55;40.63;;;25.65;;
30647;SDS011;17683;53.360;9.736;2023-01-29T14:58:40;53.17;;;26.50;;
30647;SDS011;17683;53.360;9.736;2023-01-29T15:01:39;40.80;;;25.42;;
30647;SDS011;17683;53.360;9.736;2023-01-29T15:04:28;47.60;;;26.65;;
30647;SDS011;17683;53.360;9.736;2023-01-29T15:07:11;49.97;;;30.58;;
30647;SDS011;17683;53.360;9.736;2023-01-29T15:12:30;42.15;;;28.58;;
30647;SDS011;17683;53.360;9.736;2023-01-29T15:20:33;42.83;;;26.13;;
30647;SDS011;17683;53.360;9.736;2023-01-29T15:23:01;39.83;;;25.30;;
30647;SDS011;17683;53.360;9.736;2023-01-29T15:25:30;46.15;;;26.40;;
30647;SDS011;17683;53.360;9.736;2023-01-29T15:28:11;38.05;;;24.85;;
30647;SDS011;17683;53.360;9.736;2023-01-29T15:30:36;38.20;;;25.90;;
30647;SDS011;17683;53.360;9.736;2023-01-29T15:33:03;42.40;;;25.95;;
30647;SDS011;17683;53.360;9.736;2023-01-29T15:35:35;40.47;;;24.85;;
30647;SDS011;17683;53.360;9.736;2023-01-29T15:40:39;35.88;;;24.40;;
30647;SDS011;17683;53.360;9.736;2023-01-29T15:43:21;39.33;;;25.33;;
30647;SDS011;17683;53.360;9.736;2023-01-29T15:45:47;37.83;;;24.67;;
30647;SDS011;17683;53.360;9.736;2023-01-29T15:48:19;37.42;;;23.52;;
30647;SDS011;17683;53.360;9.736;2023-01-29T15:50:50;43.72;;;25.58;;
30647;SDS011;17683;53.360;9.736;2023-01-29T15:53:19;41.20;;;24.58;;
30647;SDS011;17683;53.360;9.736;2023-01-29T15:55:50;42.92;;;25.27;;
30647;SDS011;17683;53.360;9.736;2023-01-29T15:58:16;38.95;;;25.48;;
30647;SDS011;17683;53.360;9.736;2023-01-29T16:00:48;40.20;;;25.13;;
30647;SDS011;17683;53.360;9.736;2023-01-29T16:03:18;37.08;;;24.40;;
30647;SDS011;17683;53.360;9.736;2023-01-29T16:05:47;39.40;;;23.58;;
30647;SDS011;17683;53.360;9.736;2023-01-29T16:08:13;41.58;;;24.60;;
30647;SDS011;17683;53.360;9.736;2023-01-29T16:10:39;39.15;;;24.45;;
30647;SDS011;17683;53.360;9.736;2023-01-29T16:13:10;35.05;;;24.00;;
30647;SDS011;17683;53.360;9.736;2023-01-29T16:18:49;37.47;;;23.60;;
30647;SDS011;17683;53.360;9.736;2023-01-29T16:24:00;39.92;;;24.65;;
30647;SDS011;17683;53.360;9.736;2023-01-29T16:26:41;38.80;;;24.33;;
30647;SDS011;17683;53.360;9.736;2023-01-29T16:29:13;39.33;;;24.90;;
30647;SDS011;17683;53.360;9.736;2023-01-29T16:31:42;42.08;;;25.90;;
30647;SDS011;17683;53.360;9.736;2023-01-29T16:36:45;40.30;;;25.50;;
30647;SDS011;17683;53.360;9.736;2023-01-29T16:39:16;41.35;;;25.25;;
30647;SDS011;17683;53.360;9.736;2023-01-29T16:50:00;39.80;;;23.88;;
30647;SDS011;17683;53.360;9.736;2023-01-29T16:52:38;42.10;;;27.02;;
30647;SDS011;17683;53.360;9.736;2023-01-29T16:55:24;40.83;;;23.83;;
30647;SDS011;17683;53.360;9.736;2023-01-29T16:57:56;43.05;;;26.25;;
30647;SDS011;17683;53.360;9.736;2023-01-29T17:00:23;40.00;;;25.75;;
30647;SDS011;17683;53.360;9.736;2023-01-29T17:02:54;41.35;;;24.45;;
30647;SDS011;17683;53.360;9.736;2023-01-29T17:05:27;44.42;;;26.42;;
30647;SDS011;17683;53.360;9.736;2023-01-29T17:07:56;43.78;;;26.15;;
30647;SDS011;17683;53.360;9.736;2023-01-29T17:10:23;36.58;;;24.75;;
30647;SDS011;17683;53.360;9.736;2023-01-29T17:18:15;37.90;;;24.70;;
30647;SDS011;17683;53.360;9.736;2023-01-29T17:20:48;41.90;;;26.55;;
30647;SDS011;17683;53.360;9.736;2023-01-29T17:23:15;42.17;;;26.30;;
30647;SDS011;17683;53.360;9.736;2023-01-29T17:25:41;44.95;;;26.65;;
30647;SDS011;17683;53.360;9.736;2023-01-29T17:28:09;41.38;;;25.52;;
30647;SDS011;17683;53.360;9.736;2023-01-29T17:30:36;36.40;;;24.60;;
30647;SDS011;17683;53.360;9.736;2023-01-29T17:33:13;39.53;;;26.38;;
30647;SDS011;17683;53.360;9.736;2023-01-29T17:35:41;41.35;;;26.42;;
30647;SDS011;17683;53.360;9.736;2023-01-29T17:38:12;45.00;;;27.85;;
30647;SDS011;17683;53.360;9.736;2023-01-29T17:40:41;43.55;;;27.13;;
30647;SDS011;17683;53.360;9.736;2023-01-29T17:43:10;42.03;;;26.35;;
30647;SDS011;17683;53.360;9.736;2023-01-29T17:45:38;45.08;;;27.10;;